Time;durP1;ratioP1;P1;durP2;ratioP2;P2;SDS_P1;SDS_P2;PMS_P1;PMS_P2;Temp;Humidity;BMP_temperature;BMP_pressure;BME280_temperature;BME280_humidity;BME280_pressure;Samples;Min_cycle;Max_cycle;Signal;HPM_P1;HPM_P2
2021/12/24 00:01:05;;;;;;;51.03;27.23;;;7.70;99.90;;;;;;5096785;27;20217;-56
2021/12/24 00:03:33;;;;;;;57.70;27.10;;;7.70;99.90;;;;;;5103819;28;20260;-56
2021/12/24 00:06:02;;;;;;;51.97;27.97;;;7.70;99.90;;;;;;5097307;28;20348;-55
2021/12/24 00:08:29;;;;;;;55.20;26.40;;;7.80;99.90;;;;;;5099993;28;20225;-57
2021/12/24 00:11:00;;;;;;;55.77;26.50;;;7.80;99.90;;;;;;5098892;28;20197;-53
2021/12/24 00:13:33;;;;;;;46.37;25.73;;;7.90;99.90;;;;;;5097100;27;20219;-55
2021/12/24 00:37:16;;;;;;;38.27;21.47;;;8.10;99.90;;;;;;5097441;28;20591;-57
2021/12/24 00:39:52;;;;;;;34.37;22.10;;;8.10;99.90;;;;;;5109634;27;20195;-55
2021/12/24 00:42:19;;;;;;;34.37;20.63;;;8.10;99.90;;;;;;5095954;28;20191;-57
2021/12/24 00:44:46;;;;;;;39.07;21.90;;;8.10;99.90;;;;;;5095974;28;20236;-55
2021/12/24 00:47:13;;;;;;;35.37;20.97;;;8.20;99.90;;;;;;5096567;28;20641;-57
2021/12/24 00:49:40;;;;;;;37.90;20.33;;;8.20;99.90;;;;;;5094362;28;21802;-55
2021/12/24 00:52:18;;;;;;;28.87;18.97;;;8.20;99.90;;;;;;5096694;28;20221;-54
2021/12/24 00:55:03;;;;;;;31.63;19.53;;;8.20;99.90;;;;;;5095135;28;20711;-55
2021/12/24 00:57:36;;;;;;;35.30;20.93;;;8.20;99.90;;;;;;5100269;28;20543;-57
2021/12/24 01:00:10;;;;;;;31.07;20.10;;;8.30;99.90;;;;;;5096617;28;20217;-56
2021/12/24 01:02:37;;;;;;;35.53;20.23;;;8.30;99.90;;;;;;5098053;28;20295;-57
2021/12/24 01:05:04;;;;;;;26.43;17.63;;;8.30;99.90;;;;;;5096241;28;20232;-57
2021/12/24 01:07:31;;;;;;;33.07;21.07;;;8.30;99.90;;;;;;5096781;28;20273;-57
2021/12/24 01:09:58;;;;;;;29.43;17.87;;;8.40;99.90;;;;;;5098113;28;22148;-55
2021/12/24 01:12:26;;;;;;;31.73;18.73;;;8.40;99.90;;;;;;5096562;28;20216;-56
2021/12/24 01:14:53;;;;;;;30.77;18.73;;;8.40;99.90;;;;;;5095084;28;20289;-55
2021/12/24 01:17:34;;;;;;;30.23;17.10;;;8.50;99.90;;;;;;5095797;28;20604;-55
2021/12/24 01:20:09;;;;;;;23.40;15.47;;;8.50;99.90;;;;;;5093403;28;20295;-57
2021/12/24 01:25:40;;;;;;;24.97;15.17;;;8.60;99.90;;;;;;5076363;28;20299;-57
2021/12/24 01:28:34;;;;;;;25.83;16.20;;;8.60;99.90;;;;;;5092334;28;20271;-56
2021/12/24 01:44:39;;;;;;;35.90;18.77;;;8.90;99.90;;;;;;5093531;28;20314;-55
2021/12/24 01:47:09;;;;;;;39.00;19.23;;;8.90;99.90;;;;;;5094834;28;20211;-55
2021/12/24 01:49:36;;;;;;;36.27;19.47;;;8.90;99.90;;;;;;5094185;28;20552;-55
2021/12/24 01:52:05;;;;;;;35.03;20.77;;;9.00;99.90;;;;;;5094071;28;20271;-55
2021/12/24 01:54:32;;;;;;;39.33;20.57;;;9.00;99.90;;;;;;5096441;28;20695;-57
2021/12/24 01:56:59;;;;;;;35.63;20.90;;;9.00;99.90;;;;;;5093435;28;20368;-55
2021/12/24 01:59:26;;;;;;;43.63;20.63;;;9.00;99.90;;;;;;5098746;28;20198;-57
2021/12/24 02:01:53;;;;;;;42.80;21.53;;;9.00;99.90;;;;;;5101173;27;20495;-55
2021/12/24 02:04:22;;;;;;;38.97;21.50;;;9.10;99.90;;;;;;5097451;28;20569;-55
2021/12/24 02:06:49;;;;;;;35.13;20.73;;;9.10;99.90;;;;;;5098402;27;21483;-55
2021/12/24 02:09:17;;;;;;;42.80;21.83;;;9.10;99.90;;;;;;5097665;28;20251;-54
2021/12/24 02:11:45;;;;;;;37.57;20.30;;;9.10;99.90;;;;;;5096607;28;20208;-56
2021/12/24 02:14:19;;;;;;;37.83;22.07;;;9.10;99.90;;;;;;5099409;28;20246;-54
2021/12/24 02:17:06;;;;;;;40.17;21.63;;;9.10;99.90;;;;;;5099126;28;20295;-55
2021/12/24 02:31:04;;;;;;;39.60;21.13;;;9.20;99.90;;;;;;5016689;28;20225;-53
2021/12/24 02:33:31;;;;;;;44.30;20.40;;;9.20;99.90;;;;;;5014148;28;20268;-54
2021/12/24 02:35:58;;;;;;;36.20;20.47;;;9.20;99.90;;;;;;5017260;28;20212;-54
2021/12/24 02:38:26;;;;;;;41.53;23.20;;;9.20;99.90;;;;;;5015971;28;20717;-54
2021/12/24 02:40:53;;;;;;;43.67;22.43;;;9.20;99.90;;;;;;5017271;28;20224;-53
2021/12/24 02:43:22;;;;;;;45.27;21.53;;;9.20;99.90;;;;;;5016191;28;20236;-52
2021/12/24 02:45:52;;;;;;;43.73;21.43;;;9.30;99.90;;;;;;5001433;28;20225;-52
2021/12/24 02:53:58;;;;;;;44.37;20.97;;;9.30;99.90;;;;;;5018180;28;20208;-53
2021/12/24 02:56:32;;;;;;;41.07;21.07;;;9.30;99.90;;;;;;5016875;28;20764;-53
2021/12/24 02:59:03;;;;;;;42.47;21.20;;;9.30;99.90;;;;;;5014201;28;20286;-55
2021/12/24 03:01:37;;;;;;;43.30;21.87;;;9.30;99.90;;;;;;5045676;28;20286;-54
2021/12/24 03:04:06;;;;;;;40.40;20.07;;;9.30;99.90;;;;;;5100138;27;20213;-54
2021/12/24 03:06:36;;;;;;;37.00;19.10;;;9.30;99.90;;;;;;5101992;28;20594;-53
2021/12/24 03:09:06;;;;;;;44.07;20.13;;;9.30;99.90;;;;;;5099748;28;20200;-54
2021/12/24 03:11:35;;;;;;;42.00;19.20;;;9.40;99.90;;;;;;5100692;27;20225;-54
2021/12/24 03:14:03;;;;;;;41.50;20.20;;;9.40;99.90;;;;;;5098729;28;20238;-55
2021/12/24 03:16:31;;;;;;;30.97;17.17;;;9.40;99.90;;;;;;5097501;28;20203;-53
2021/12/24 03:18:58;;;;;;;40.77;17.67;;;9.50;99.90;;;;;;5099514;28;20207;-52
2021/12/24 03:21:45;;;;;;;39.23;19.07;;;9.50;99.90;;;;;;5101786;28;20210;-54
2021/12/24 03:26:45;;;;;;;28.40;16.57;;;9.50;99.90;;;;;;5098966;28;20220;-55
2021/12/24 03:29:14;;;;;;;38.80;17.23;;;9.50;99.90;;;;;;5100008;28;20224;-53
2021/12/24 03:31:43;;;;;;;28.63;16.57;;;9.50;99.90;;;;;;5115137;27;20232;-52
2021/12/24 03:34:12;;;;;;;27.10;15.70;;;9.50;99.90;;;;;;5098955;28;20313;-52
2021/12/24 03:36:40;;;;;;;34.40;15.77;;;9.50;99.90;;;;;;5098849;28;20211;-54
2021/12/24 03:39:08;;;;;;;30.20;14.23;;;9.50;99.90;;;;;;5101968;27;20569;-52
2021/12/24 03:41:35;;;;;;;29.10;13.43;;;9.50;99.90;;;;;;5101067;28;20288;-52
2021/12/24 03:44:02;;;;;;;29.83;12.73;;;9.50;99.90;;;;;;5099136;28;20298;-54
2021/12/24 03:47:08;;;;;;;26.87;13.23;;;9.50;99.90;;;;;;5100005;28;20229;-55
2021/12/24 03:49:34;;;;;;;27.97;13.23;;;9.50;99.90;;;;;;5096630;28;20208;-54
2021/12/24 03:54:58;;;;;;;21.80;11.50;;;9.50;99.90;;;;;;5100153;28;20242;-53
2021/12/24 03:57:32;;;;;;;32.57;11.30;;;9.50;99.90;;;;;;5098421;27;20202;-52
2021/12/24 04:00:17;;;;;;;28.00;10.60;;;9.50;99.90;;;;;;5098044;28;20297;-52
2021/12/24 04:02:45;;;;;;;24.47;10.30;;;9.50;99.90;;;;;;5098946;28;20205;-51
2021/12/24 04:05:12;;;;;;;18.67;9.20;;;9.40;99.90;;;;;;5117027;27;20299;-54
2021/12/24 04:07:39;;;;;;;23.63;8.93;;;9.40;99.90;;;;;;5101401;28;20397;-54
2021/12/24 04:10:19;;;;;;;16.97;9.30;;;9.40;99.90;;;;;;5103007;28;20219;-52
2021/12/24 04:12:46;;;;;;;21.03;9.47;;;9.30;99.90;;;;;;5101437;28;20203;-54
2021/12/24 04:15:13;;;;;;;26.97;9.50;;;9.30;99.90;;;;;;5095785;28;20210;-51
2021/12/24 04:17:42;;;;;;;23.17;8.80;;;9.30;99.90;;;;;;5097825;27;20194;-53
2021/12/24 04:25:28;;;;;;;21.37;9.03;;;9.30;99.90;;;;;;5098814;27;20260;-53
2021/12/24 04:28:00;;;;;;;28.63;9.73;;;9.30;99.90;;;;;;5097936;28;20208;-54
2021/12/24 04:30:34;;;;;;;19.30;9.03;;;9.30;99.90;;;;;;5099264;28;20225;-52
2021/12/24 04:33:08;;;;;;;27.47;9.70;;;9.30;99.90;;;;;;5100457;27;20213;-53
2021/12/24 04:35:55;;;;;;;21.67;8.50;;;9.30;99.90;;;;;;5099441;28;20193;-53
2021/12/24 04:52:16;;;;;;;21.33;7.73;;;9.20;99.90;;;;;;5101219;28;20262;-52
2021/12/24 05:03:05;;;;;;;26.17;8.73;;;9.20;99.90;;;;;;5096544;28;20273;-53
2021/12/24 05:10:37;;;;;;;21.20;9.20;;;9.10;99.90;;;;;;5098232;28;20217;-53
2021/12/24 05:13:06;;;;;;;17.60;8.27;;;9.10;99.90;;;;;;5097207;28;20224;-52
2021/12/24 05:15:37;;;;;;;21.03;8.57;;;9.10;99.90;;;;;;5097289;28;20198;-51
2021/12/24 05:18:26;;;;;;;16.00;8.63;;;9.00;99.90;;;;;;5097136;28;20577;-55
2021/12/24 05:23:40;;;;;;;20.57;7.73;;;9.00;99.90;;;;;;5097362;28;20208;-52
2021/12/24 05:26:07;;;;;;;20.67;9.27;;;9.00;99.90;;;;;;5100567;28;20305;-52
2021/12/24 05:28:34;;;;;;;22.03;7.90;;;9.00;99.90;;;;;;5096564;28;20567;-53
2021/12/24 05:31:01;;;;;;;18.80;8.57;;;9.00;99.90;;;;;;5098910;28;20229;-53
2021/12/24 05:33:28;;;;;;;14.40;7.47;;;9.00;99.90;;;;;;5100387;28;20221;-54
2021/12/24 05:35:55;;;;;;;23.93;7.93;;;9.00;99.90;;;;;;5102025;28;20556;-52
2021/12/24 05:38:22;;;;;;;19.50;8.40;;;9.00;99.90;;;;;;5100178;28;20289;-53
2021/12/24 05:40:49;;;;;;;19.73;8.43;;;9.00;99.90;;;;;;5116529;27;20199;-55
2021/12/24 05:43:16;;;;;;;19.90;7.97;;;9.00;99.90;;;;;;5102173;28;20202;-55
2021/12/24 05:45:43;;;;;;;16.03;6.73;;;9.00;99.90;;;;;;5103566;27;20656;-54
2021/12/24 05:48:10;;;;;;;16.83;7.73;;;9.00;99.90;;;;;;5085592;28;20657;-56
2021/12/24 05:50:36;;;;;;;18.47;7.20;;;9.00;99.90;;;;;;5100669;28;20700;-53
2021/12/24 05:53:03;;;;;;;25.53;7.73;;;8.90;99.90;;;;;;5102463;27;20191;-53
2021/12/24 05:55:30;;;;;;;16.40;7.63;;;8.90;99.90;;;;;;5091330;27;20209;-53
2021/12/24 05:57:57;;;;;;;16.07;7.13;;;9.00;99.90;;;;;;5100603;28;20722;-54
2021/12/24 06:00:24;;;;;;;20.43;7.07;;;8.90;99.90;;;;;;5102020;28;20198;-55
2021/12/24 06:02:51;;;;;;;20.10;6.83;;;9.00;99.90;;;;;;5098105;28;20636;-53
2021/12/24 06:05:18;;;;;;;18.73;7.60;;;9.00;99.90;;;;;;5102080;27;20631;-53
2021/12/24 06:07:45;;;;;;;19.60;7.10;;;8.90;99.90;;;;;;5101768;28;20209;-53
2021/12/24 06:10:12;;;;;;;15.83;7.50;;;8.90;99.90;;;;;;5101146;28;20215;-55
2021/12/24 06:12:39;;;;;;;21.17;7.80;;;9.00;99.90;;;;;;5101675;28;20209;-55
2021/12/24 06:15:08;;;;;;;16.17;6.97;;;9.00;99.90;;;;;;5100972;28;20215;-53
2021/12/24 06:17:37;;;;;;;15.80;6.27;;;9.00;99.90;;;;;;5100484;27;22274;-59
2021/12/24 06:20:06;;;;;;;16.40;7.33;;;9.00;99.90;;;;;;5099205;28;20229;-52
2021/12/24 06:22:33;;;;;;;19.83;6.97;;;8.90;99.90;;;;;;5101955;28;20197;-54
2021/12/24 06:25:01;;;;;;;20.37;7.13;;;8.90;99.90;;;;;;5102044;28;20656;-54
2021/12/24 06:27:28;;;;;;;15.30;6.73;;;8.90;99.90;;;;;;5100868;28;20201;-52
2021/12/24 06:29:54;;;;;;;16.17;5.87;;;8.90;99.90;;;;;;5100526;28;20657;-53
2021/12/24 06:32:25;;;;;;;24.43;7.63;;;8.90;99.90;;;;;;5101856;28;20686;-54
2021/12/24 06:34:52;;;;;;;19.93;7.20;;;8.90;99.90;;;;;;5100819;28;20731;-52
2021/12/24 06:37:19;;;;;;;18.03;7.40;;;8.90;99.90;;;;;;5100432;27;20232;-54
2021/12/24 06:39:46;;;;;;;10.77;5.30;;;8.90;99.90;;;;;;5102064;28;20700;-52
2021/12/24 06:42:13;;;;;;;20.43;6.77;;;8.90;99.90;;;;;;5099519;28;20205;-53
2021/12/24 06:44:40;;;;;;;19.00;6.70;;;8.80;99.90;;;;;;5100297;28;20664;-54
2021/12/24 06:47:08;;;;;;;16.00;5.93;;;8.90;99.90;;;;;;5100347;28;20303;-53
2021/12/24 06:49:35;;;;;;;15.57;7.20;;;8.90;99.90;;;;;;5104724;27;20215;-53
2021/12/24 06:52:02;;;;;;;19.60;6.37;;;8.90;99.90;;;;;;5099786;27;20209;-52
2021/12/24 06:54:31;;;;;;;19.73;7.10;;;8.90;99.90;;;;;;5103166;28;20318;-54
2021/12/24 06:56:58;;;;;;;15.07;6.20;;;8.90;99.90;;;;;;5101248;28;20199;-54
2021/12/24 06:59:25;;;;;;;15.47;6.60;;;8.90;99.90;;;;;;5100603;28;20202;-52
2021/12/24 07:01:52;;;;;;;14.07;6.50;;;8.90;99.90;;;;;;5097390;28;20205;-55
2021/12/24 07:04:20;;;;;;;19.07;6.50;;;8.80;99.90;;;;;;5097628;27;20214;-53
2021/12/24 07:06:47;;;;;;;16.37;6.93;;;8.90;99.90;;;;;;5099899;28;20233;-54
2021/12/24 07:09:18;;;;;;;18.07;7.47;;;8.90;99.90;;;;;;5099023;28;20247;-53
2021/12/24 07:11:44;;;;;;;19.03;8.00;;;8.90;99.90;;;;;;5100178;28;20204;-55
2021/12/24 07:14:11;;;;;;;23.97;7.93;;;8.90;99.90;;;;;;5099104;28;20235;-55
2021/12/24 07:16:39;;;;;;;16.83;7.67;;;8.90;99.90;;;;;;5098270;27;20615;-55
2021/12/24 07:19:06;;;;;;;20.23;7.80;;;9.00;99.90;;;;;;5094814;28;20305;-55
2021/12/24 07:21:35;;;;;;;25.57;8.07;;;9.00;99.90;;;;;;5100865;28;20645;-54
2021/12/24 07:24:03;;;;;;;21.10;7.07;;;9.00;99.90;;;;;;5101309;28;20206;-55
2021/12/24 07:26:30;;;;;;;17.63;7.13;;;8.90;99.90;;;;;;5100220;28;20805;-54
2021/12/24 07:28:56;;;;;;;13.47;6.83;;;8.90;99.90;;;;;;5101175;28;20605;-54
2021/12/24 07:31:23;;;;;;;18.30;7.13;;;8.90;99.90;;;;;;5098412;28;20258;-54
2021/12/24 07:33:50;;;;;;;18.00;6.53;;;8.90;99.90;;;;;;5102048;28;20227;-55
2021/12/24 07:36:17;;;;;;;21.60;6.73;;;8.90;99.90;;;;;;5099867;28;20666;-55
2021/12/24 07:38:44;;;;;;;24.03;6.90;;;8.90;99.90;;;;;;5095833;28;20209;-54
2021/12/24 07:41:11;;;;;;;16.43;6.57;;;8.90;99.90;;;;;;5098080;28;20284;-54
2021/12/24 07:43:38;;;;;;;17.60;6.23;;;8.80;99.90;;;;;;5099987;27;20285;-54
2021/12/24 07:46:05;;;;;;;16.47;6.03;;;8.90;99.90;;;;;;5099956;27;20237;-55
2021/12/24 07:48:35;;;;;;;16.20;6.90;;;8.90;99.90;;;;;;5095090;27;20230;-53
2021/12/24 07:53:28;;;;;;;18.50;5.77;;;8.90;99.90;;;;;;5094487;27;20289;-55
2021/12/24 07:55:56;;;;;;;20.80;6.37;;;8.80;99.90;;;;;;5098307;27;20834;-55
2021/12/24 07:58:24;;;;;;;17.17;6.00;;;8.90;99.90;;;;;;5094023;28;20199;-55
2021/12/24 08:00:51;;;;;;;13.53;6.57;;;8.90;99.90;;;;;;5094973;28;20244;-55
2021/12/24 08:03:19;;;;;;;16.33;8.00;;;8.90;99.90;;;;;;5095668;28;20246;-55
2021/12/24 08:05:48;;;;;;;15.30;7.63;;;8.90;99.90;;;;;;5095286;28;20328;-55
2021/12/24 08:08:16;;;;;;;16.97;6.77;;;9.00;99.90;;;;;;5098691;28;20262;-56
2021/12/24 08:10:43;;;;;;;18.00;6.13;;;8.90;99.90;;;;;;5098239;28;20230;-55
2021/12/24 08:13:10;;;;;;;16.97;6.53;;;8.90;99.90;;;;;;5112662;27;20281;-54
2021/12/24 08:15:37;;;;;;;16.03;6.33;;;8.90;99.90;;;;;;5099316;28;20279;-55
2021/12/24 08:18:08;;;;;;;20.83;7.03;;;8.90;99.90;;;;;;5095386;28;20194;-53
2021/12/24 08:20:35;;;;;;;16.70;6.50;;;8.90;99.90;;;;;;5095138;28;20738;-54
2021/12/24 08:23:02;;;;;;;12.73;6.33;;;8.90;99.90;;;;;;5093256;27;20632;-57
2021/12/24 08:25:29;;;;;;;19.40;6.37;;;8.90;99.90;;;;;;5095156;28;20635;-56
2021/12/24 08:27:56;;;;;;;18.60;6.83;;;8.90;99.90;;;;;;5096572;27;20245;-57
2021/12/24 08:30:23;;;;;;;17.67;7.97;;;8.90;99.90;;;;;;5095036;28;20664;-56
2021/12/24 08:32:50;;;;;;;14.30;7.00;;;8.90;99.90;;;;;;5095311;28;20287;-55
2021/12/24 08:35:21;;;;;;;24.87;7.03;;;8.90;99.90;;;;;;5092856;28;20974;-54
2021/12/24 08:37:48;;;;;;;15.00;6.80;;;8.90;99.90;;;;;;5094156;28;20201;-56
2021/12/24 08:40:16;;;;;;;16.27;7.07;;;8.90;99.90;;;;;;5095426;28;20690;-54
2021/12/24 08:42:43;;;;;;;21.40;8.00;;;8.90;99.90;;;;;;5095434;28;20331;-54
2021/12/24 08:45:12;;;;;;;21.17;8.10;;;8.90;99.90;;;;;;5097231;28;20239;-56
2021/12/24 08:47:40;;;;;;;15.10;7.43;;;8.90;99.90;;;;;;5094714;27;20285;-57
2021/12/24 08:50:10;;;;;;;13.23;6.90;;;8.90;99.90;;;;;;5095610;27;20263;-56
2021/12/24 08:52:36;;;;;;;17.33;7.17;;;8.90;99.90;;;;;;5096085;28;20208;-55
2021/12/24 08:55:04;;;;;;;19.23;8.13;;;8.90;99.90;;;;;;5095484;28;20210;-55
2021/12/24 08:57:31;;;;;;;25.80;9.33;;;8.90;99.90;;;;;;5091344;28;20225;-55
2021/12/24 08:59:57;;;;;;;18.00;8.37;;;8.90;99.90;;;;;;5093200;28;20204;-55
2021/12/24 09:02:24;;;;;;;23.10;8.23;;;8.90;99.90;;;;;;5094746;28;20248;-55
2021/12/24 09:04:51;;;;;;;21.83;7.93;;;9.00;99.90;;;;;;5087225;28;20209;-59
2021/12/24 09:07:18;;;;;;;17.70;7.83;;;9.00;99.90;;;;;;5091825;28;20297;-55
2021/12/24 09:09:45;;;;;;;19.70;8.23;;;8.90;99.90;;;;;;5091639;28;20202;-55
2021/12/24 09:12:12;;;;;;;16.93;7.70;;;8.90;99.90;;;;;;5094141;28;20193;-54
2021/12/24 09:14:39;;;;;;;17.27;6.93;;;8.90;99.90;;;;;;5091041;28;20269;-54
2021/12/24 09:17:06;;;;;;;20.37;7.13;;;9.00;99.90;;;;;;5091981;28;20293;-56
2021/12/24 09:19:35;;;;;;;28.90;8.30;;;8.90;99.90;;;;;;5090920;27;20664;-57
2021/12/24 09:22:02;;;;;;;22.00;7.77;;;9.00;99.90;;;;;;5093533;28;20201;-54
2021/12/24 09:24:31;;;;;;;19.33;7.30;;;9.00;99.90;;;;;;5124804;27;20631;-54
2021/12/24 09:26:58;;;;;;;14.37;7.33;;;9.00;99.90;;;;;;5093450;28;20250;-55
2021/12/24 09:29:27;;;;;;;22.70;7.83;;;9.00;99.90;;;;;;5093785;28;20228;-54
2021/12/24 09:31:55;;;;;;;20.30;7.23;;;9.00;99.90;;;;;;5091424;28;20251;-56
2021/12/24 09:34:22;;;;;;;15.50;7.07;;;9.00;99.90;;;;;;5092820;28;20213;-55
2021/12/24 09:36:49;;;;;;;25.83;7.63;;;9.00;99.90;;;;;;5092515;28;20202;-55
2021/12/24 09:39:16;;;;;;;14.80;6.77;;;9.00;99.90;;;;;;5094534;28;20627;-55
2021/12/24 09:41:44;;;;;;;23.50;7.67;;;9.00;99.90;;;;;;5092016;28;20235;-57
2021/12/24 09:44:11;;;;;;;21.73;7.83;;;9.10;99.90;;;;;;5092114;28;20241;-61
2021/12/24 09:46:42;;;;;;;13.10;7.03;;;9.10;99.90;;;;;;5091208;28;21302;-56
2021/12/24 09:49:11;;;;;;;17.03;7.20;;;9.20;99.90;;;;;;5092907;28;20204;-55
2021/12/24 09:51:41;;;;;;;16.53;6.50;;;9.10;99.90;;;;;;5092933;27;20198;-55
2021/12/24 09:54:12;;;;;;;14.20;6.53;;;9.10;99.90;;;;;;5095685;28;20726;-55
2021/12/24 09:56:40;;;;;;;20.30;6.80;;;9.10;99.90;;;;;;5090935;28;20296;-56
2021/12/24 09:59:08;;;;;;;13.17;6.53;;;9.20;99.90;;;;;;5092485;28;20245;-54
2021/12/24 10:01:49;;;;;;;16.90;6.27;;;9.10;99.90;;;;;;5094936;28;20232;-54
2021/12/24 10:04:19;;;;;;;18.30;6.20;;;9.10;99.90;;;;;;5089470;28;20304;-53
2021/12/24 10:07:14;;;;;;;21.13;6.80;;;9.20;99.90;;;;;;5090093;28;20235;-54
2021/12/24 10:09:44;;;;;;;20.17;6.63;;;9.20;99.90;;;;;;5091478;28;20298;-53
2021/12/24 10:12:17;;;;;;;17.60;6.23;;;9.10;99.90;;;;;;5092294;28;20200;-55
2021/12/24 10:14:51;;;;;;;18.17;6.57;;;9.20;99.90;;;;;;5092958;28;20243;-54
2021/12/24 10:17:29;;;;;;;15.83;6.47;;;9.20;99.90;;;;;;5096261;28;20590;-54
2021/12/24 10:19:58;;;;;;;18.10;8.03;;;9.30;99.90;;;;;;5098071;27;20285;-55
2021/12/24 10:22:52;;;;;;;26.17;7.70;;;9.30;99.90;;;;;;5099261;27;20220;-57
2021/12/24 10:25:29;;;;;;;18.47;7.93;;;9.30;99.90;;;;;;5098954;27;20210;-53
2021/12/24 10:27:56;;;;;;;19.73;7.40;;;9.30;99.90;;;;;;5099413;28;20196;-54
2021/12/24 10:30:27;;;;;;;17.20;8.27;;;9.40;99.90;;;;;;5099318;28;20248;-54
2021/12/24 10:32:56;;;;;;;20.20;7.30;;;9.30;99.90;;;;;;5116730;27;20324;-54
2021/12/24 10:35:31;;;;;;;15.07;7.57;;;9.30;99.90;;;;;;5094480;27;20712;-54
2021/12/24 10:38:12;;;;;;;20.33;7.67;;;9.30;99.90;;;;;;5097739;28;20225;-55
2021/12/24 10:40:53;;;;;;;20.67;8.17;;;9.40;99.90;;;;;;5098875;27;20202;-54
2021/12/24 10:43:33;;;;;;;17.97;7.97;;;9.40;99.90;;;;;;5099062;27;20221;-57
2021/12/24 10:46:14;;;;;;;17.93;8.50;;;9.50;99.90;;;;;;5097471;27;20236;-55
2021/12/24 10:49:07;;;;;;;20.30;9.13;;;9.60;99.90;;;;;;5094606;28;20303;-55
2021/12/24 10:51:57;;;;;;;20.00;7.87;;;9.50;99.90;;;;;;5109540;27;20881;-56
2021/12/24 10:54:25;;;;;;;21.43;9.17;;;9.30;99.90;;;;;;5094958;28;20228;-56
2021/12/24 10:56:54;;;;;;;24.87;9.03;;;9.30;99.90;;;;;;5098152;28;20898;-56
2021/12/24 10:59:43;;;;;;;21.93;8.60;;;9.40;99.90;;;;;;5094504;27;20194;-55
2021/12/24 11:02:12;;;;;;;18.80;8.83;;;9.30;99.90;;;;;;5096516;28;20500;-58
2021/12/24 11:04:39;;;;;;;20.90;9.80;;;9.30;99.90;;;;;;5094794;27;20302;-55
2021/12/24 11:07:30;;;;;;;20.83;9.80;;;9.30;99.90;;;;;;5094733;28;20293;-55
2021/12/24 11:10:19;;;;;;;20.30;10.60;;;9.30;99.90;;;;;;5096693;28;20212;-58
2021/12/24 11:12:49;;;;;;;20.47;9.20;;;9.30;99.90;;;;;;5094537;28;20248;-55
2021/12/24 11:15:24;;;;;;;15.87;8.50;;;9.30;99.90;;;;;;5096485;27;20650;-56
2021/12/24 11:17:54;;;;;;;21.27;9.47;;;9.30;99.90;;;;;;5088870;27;20205;-53
2021/12/24 11:20:22;;;;;;;23.13;9.70;;;9.30;99.90;;;;;;5096926;28;20269;-55
2021/12/24 11:22:58;;;;;;;31.70;9.13;;;9.30;99.90;;;;;;5096742;27;20210;-55
2021/12/24 11:25:29;;;;;;;17.13;8.33;;;9.30;99.90;;;;;;5094200;27;20249;-55
2021/12/24 11:27:56;;;;;;;19.90;9.60;;;9.40;99.90;;;;;;5091323;27;20309;-59
2021/12/24 11:30:25;;;;;;;20.80;9.60;;;9.50;99.90;;;;;;5094312;27;20705;-57
2021/12/24 11:32:53;;;;;;;16.23;8.60;;;9.50;99.90;;;;;;5092311;28;20239;-54
2021/12/24 11:35:21;;;;;;;22.20;9.10;;;9.60;99.90;;;;;;5095218;27;20602;-54
2021/12/24 11:37:49;;;;;;;25.00;9.13;;;9.60;99.90;;;;;;5090658;27;20976;-55
2021/12/24 11:40:18;;;;;;;19.23;10.00;;;9.60;99.90;;;;;;5096063;27;20212;-55
2021/12/24 11:42:50;;;;;;;19.60;8.63;;;9.60;99.90;;;;;;5092826;28;20289;-55
2021/12/24 11:45:20;;;;;;;17.50;8.50;;;9.70;99.90;;;;;;5093741;28;20735;-56
2021/12/24 11:47:48;;;;;;;17.80;7.87;;;9.70;99.90;;;;;;5096002;27;20347;-58
2021/12/24 11:50:16;;;;;;;18.33;8.60;;;9.80;99.90;;;;;;5096025;28;20213;-56
2021/12/24 11:52:47;;;;;;;19.00;7.80;;;9.70;99.90;;;;;;5092974;27;20212;-55
2021/12/24 11:55:15;;;;;;;18.93;8.83;;;9.70;99.90;;;;;;5095513;27;20236;-55
2021/12/24 11:57:56;;;;;;;14.50;8.23;;;9.70;99.90;;;;;;5092783;28;20656;-54
2021/12/24 12:00:34;;;;;;;18.63;8.07;;;9.70;99.90;;;;;;5096131;28;20227;-54
2021/12/24 12:03:01;;;;;;;16.47;8.17;;;9.60;99.90;;;;;;5095751;28;20288;-55
2021/12/24 12:05:32;;;;;;;21.13;8.67;;;9.70;99.90;;;;;;5095256;28;20749;-55
2021/12/24 12:08:25;;;;;;;19.57;8.47;;;9.70;99.90;;;;;;5098987;28;20641;-55
2021/12/24 12:10:56;;;;;;;17.43;8.70;;;9.70;99.90;;;;;;5093484;28;20217;-57
2021/12/24 12:13:36;;;;;;;13.90;7.90;;;9.80;99.90;;;;;;5090064;28;20223;-55
2021/12/24 12:16:04;;;;;;;20.43;7.93;;;9.80;99.90;;;;;;5093862;27;20328;-55
2021/12/24 12:18:43;;;;;;;20.23;8.47;;;9.80;99.90;;;;;;5094702;27;20251;-55
2021/12/24 12:21:12;;;;;;;17.87;8.47;;;9.80;99.90;;;;;;5091605;28;20341;-55
2021/12/24 12:26:50;;;;;;;22.33;9.43;;;9.80;99.90;;;;;;5048328;27;20340;-54
2021/12/24 12:29:40;;;;;;;29.30;8.67;;;9.80;99.90;;;;;;5092629;28;20576;-56
2021/12/24 12:32:13;;;;;;;15.50;7.90;;;9.90;99.90;;;;;;5093263;27;20246;-55
2021/12/24 12:34:43;;;;;;;20.67;8.97;;;9.90;99.90;;;;;;5094657;28;20198;-55
2021/12/24 12:37:19;;;;;;;19.83;8.13;;;9.80;99.90;;;;;;5093039;27;22058;-55
2021/12/24 12:40:07;;;;;;;26.07;8.77;;;9.90;99.90;;;;;;5095212;28;20589;-55
2021/12/24 12:42:50;;;;;;;15.43;7.77;;;9.90;99.90;;;;;;5083532;28;20224;-55
2021/12/24 12:45:42;;;;;;;16.63;8.13;;;9.80;99.90;;;;;;5092001;28;20287;-54
2021/12/24 12:48:12;;;;;;;17.37;7.57;;;10.00;99.90;;;;;;5093125;27;20291;-54
2021/12/24 12:50:50;;;;;;;19.70;8.67;;;9.90;99.90;;;;;;5091314;28;20698;-55
2021/12/24 12:53:33;;;;;;;15.43;8.03;;;10.00;99.90;;;;;;5092023;28;20296;-53
2021/12/24 12:56:20;;;;;;;19.93;7.20;;;10.00;99.90;;;;;;5091229;28;21998;-54
2021/12/24 12:59:06;;;;;;;19.20;7.00;;;10.00;99.90;;;;;;5091609;28;20289;-55
2021/12/24 13:01:52;;;;;;;16.93;7.20;;;10.00;99.90;;;;;;5088792;28;20206;-55
2021/12/24 13:04:19;;;;;;;24.90;7.83;;;10.10;99.90;;;;;;5089512;28;20292;-54
2021/12/24 13:06:49;;;;;;;18.73;8.20;;;10.00;99.90;;;;;;5088955;28;20596;-56
2021/12/24 13:09:21;;;;;;;21.93;9.93;;;10.00;99.90;;;;;;5096452;28;20727;-54
2021/12/24 13:11:54;;;;;;;17.57;9.70;;;10.00;99.90;;;;;;5094311;28;20304;-57
2021/12/24 13:14:25;;;;;;;17.73;7.83;;;10.10;99.90;;;;;;5095024;28;20658;-55
2021/12/24 13:17:17;;;;;;;17.10;7.87;;;10.10;99.90;;;;;;5092200;28;20316;-55
2021/12/24 13:22:32;;;;;;;18.47;6.77;;;10.00;99.90;;;;;;5094381;28;20201;-55
2021/12/24 13:25:05;;;;;;;17.97;7.67;;;10.00;99.90;;;;;;5094508;28;20208;-54
2021/12/24 13:27:38;;;;;;;18.17;8.00;;;10.00;99.90;;;;;;5095840;28;20237;-53
2021/12/24 13:30:31;;;;;;;18.20;6.93;;;10.00;99.90;;;;;;5092996;28;20291;-56
2021/12/24 13:33:09;;;;;;;18.30;7.27;;;10.00;99.90;;;;;;5090086;28;20210;-53
2021/12/24 13:35:42;;;;;;;13.83;6.80;;;10.00;99.90;;;;;;5098342;28;20265;-52
2021/12/24 13:38:15;;;;;;;20.27;8.00;;;9.90;99.90;;;;;;5094798;28;20703;-56
2021/12/24 13:40:44;;;;;;;16.20;6.83;;;9.90;99.90;;;;;;5096544;28;21984;-55
2021/12/24 13:43:13;;;;;;;16.87;7.50;;;9.90;99.90;;;;;;5096473;28;20268;-54
2021/12/24 13:45:43;;;;;;;13.73;6.97;;;10.00;99.90;;;;;;5096137;28;20713;-54
2021/12/24 13:48:17;;;;;;;12.50;7.10;;;9.90;99.90;;;;;;5096217;28;20213;-55
2021/12/24 13:56:51;;;;;;;19.53;6.80;;;9.90;99.90;;;;;;5101761;27;20217;-54
2021/12/24 13:59:24;;;;;;;17.27;7.27;;;9.90;99.90;;;;;;5102121;28;20550;-54
2021/12/24 14:01:52;;;;;;;15.63;6.57;;;9.90;99.90;;;;;;5099268;27;20606;-54
2021/12/24 14:04:21;;;;;;;14.93;7.10;;;10.00;99.90;;;;;;5096850;27;20238;-54
2021/12/24 14:06:50;;;;;;;21.13;7.43;;;9.80;99.90;;;;;;5100355;27;20561;-57
2021/12/24 14:09:24;;;;;;;13.90;6.70;;;9.80;99.90;;;;;;5101484;28;20620;-55
2021/12/24 14:11:53;;;;;;;14.73;6.80;;;9.80;99.90;;;;;;5101994;28;20205;-53
2021/12/24 14:19:48;;;;;;;18.87;7.27;;;9.90;99.90;;;;;;5098723;27;20254;-55
2021/12/24 14:22:17;;;;;;;18.03;7.53;;;9.90;99.90;;;;;;5099268;27;20285;-55
2021/12/24 14:24:51;;;;;;;17.20;7.33;;;9.70;99.90;;;;;;5100589;28;20897;-55
2021/12/24 14:27:20;;;;;;;24.17;7.90;;;9.70;99.90;;;;;;5099416;27;20529;-56
2021/12/24 14:29:58;;;;;;;15.40;6.87;;;9.70;99.90;;;;;;5099932;27;20203;-56
2021/12/24 14:32:34;;;;;;;20.03;6.93;;;9.70;99.90;;;;;;5100742;27;20252;-55
2021/12/24 14:35:22;;;;;;;18.30;6.83;;;9.70;99.90;;;;;;5096999;27;20287;-55
2021/12/24 14:38:05;;;;;;;18.27;6.80;;;9.80;99.90;;;;;;5101430;27;20231;-55
2021/12/24 14:40:34;;;;;;;11.27;6.27;;;10.00;99.90;;;;;;5100023;28;20676;-60
2021/12/24 14:43:09;;;;;;;17.47;6.90;;;10.00;99.90;;;;;;5100540;28;20203;-55
2021/12/24 14:45:39;;;;;;;15.90;6.73;;;10.00;99.90;;;;;;5097646;28;20752;-55
2021/12/24 14:48:24;;;;;;;24.60;7.50;;;10.00;99.90;;;;;;5097481;27;20206;-54
2021/12/24 14:51:00;;;;;;;17.10;7.23;;;9.90;99.90;;;;;;5099662;27;20241;-57
2021/12/24 14:53:39;;;;;;;17.10;8.07;;;9.90;99.90;;;;;;5100541;27;20631;-55
2021/12/24 14:56:12;;;;;;;21.23;7.83;;;9.90;99.90;;;;;;5097218;28;20239;-55
2021/12/24 14:58:48;;;;;;;17.60;7.37;;;9.90;99.90;;;;;;5100813;27;20733;-55